createdAt,value
2022-11-23T00:01:14.541Z,4.38
2022-11-23T00:04:37.483Z,9.15
2022-11-23T00:08:00.380Z,9.07
2022-11-23T00:11:26.213Z,8.95
2022-11-23T00:14:49.140Z,8.32
2022-11-23T00:18:12.051Z,11.48
2022-11-23T00:21:34.953Z,10.82
2022-11-23T00:24:57.876Z,20.65
2022-11-23T00:28:22.175Z,6.15
2022-11-23T00:31:45.142Z,18.05
2022-11-23T00:35:08.661Z,6.93
2022-11-23T00:38:31.756Z,5.88
2022-11-23T00:41:54.735Z,8.45
2022-11-23T00:45:19.158Z,5.60
2022-11-23T00:48:43.035Z,9.90
2022-11-23T00:52:06.135Z,4.97
2022-11-23T00:55:29.097Z,7.15
2022-11-23T00:58:52.796Z,6.15
2022-11-23T01:02:17.100Z,8.57
2022-11-23T01:05:40.619Z,6.40
2022-11-23T01:09:06.412Z,5.43
2022-11-23T01:12:30.249Z,7.57
2022-11-23T01:15:53.196Z,6.18
2022-11-23T01:19:19.726Z,5.05
2022-11-23T01:22:45.703Z,3.15
2022-11-23T01:26:10.521Z,4.53
2022-11-23T01:29:33.853Z,3.08
2022-11-23T01:32:57.636Z,5.03
2022-11-23T01:36:24.536Z,9.55
2022-11-23T01:39:48.952Z,4.43
2022-11-23T01:43:16.128Z,4.75
2022-11-23T01:46:39.048Z,6.32
2022-11-23T01:50:02.004Z,6.47
2022-11-23T01:53:28.530Z,7.30
2022-11-23T01:56:55.860Z,7.53
2022-11-23T02:00:19.810Z,5.13
2022-11-23T02:03:44.525Z,7.20
2022-11-23T02:07:08.090Z,7.68
2022-11-23T02:10:34.592Z,8.75
2022-11-23T02:13:58.077Z,8.52
2022-11-23T02:17:21.976Z,9.40
2022-11-23T02:20:45.753Z,10.82
2022-11-23T02:24:16.840Z,9.73
2022-11-23T02:27:46.753Z,9.88
2022-11-23T02:31:10.334Z,7.20
2022-11-23T02:34:33.264Z,14.45
2022-11-23T02:37:56.243Z,4.32
2022-11-23T02:41:19.277Z,5.63
2022-11-23T02:44:50.086Z,11.40
2022-11-23T02:48:13.276Z,4.28
2022-11-23T02:51:36.176Z,5.57
2022-11-23T02:54:59.079Z,5.45
2022-11-23T02:58:22.050Z,7.20
2022-11-23T03:01:46.453Z,6.07
2022-11-23T03:05:09.946Z,8.68
2022-11-23T03:08:32.851Z,5.55
2022-11-23T03:11:56.452Z,6.35
2022-11-23T03:15:20.996Z,13.88
2022-11-23T03:18:45.390Z,7.50
2022-11-23T03:22:08.632Z,6.03
2022-11-23T03:25:31.865Z,4.75
2022-11-23T03:28:55.163Z,7.22
2022-11-23T03:32:20.423Z,7.35
2022-11-23T03:35:48.865Z,4.60
2022-11-23T03:39:16.236Z,9.02
2022-11-23T03:42:57.627Z,7.57
2022-11-23T03:46:20.662Z,7.95
2022-11-23T03:49:43.568Z,13.93
2022-11-23T03:53:08.163Z,2.85
2022-11-23T03:56:31.278Z,5.13
2022-11-23T03:59:54.201Z,8.07
2022-11-23T04:03:18.312Z,15.55
2022-11-23T04:07:07.623Z,8.57
2022-11-23T04:10:38.021Z,3.53
2022-11-23T04:14:09.301Z,6.00
2022-11-23T04:17:32.205Z,8.13
2022-11-23T04:20:55.379Z,4.88
2022-11-23T04:24:18.326Z,8.63
2022-11-23T04:27:43.910Z,12.05
2022-11-23T04:31:06.905Z,4.55
2022-11-23T04:34:40.451Z,12.32
2022-11-23T04:38:04.443Z,7.68
2022-11-23T04:41:27.971Z,7.03
2022-11-23T04:44:52.412Z,9.23
2022-11-23T04:48:15.854Z,13.32
2022-11-23T04:51:39.476Z,17.60
2022-11-23T04:55:02.468Z,11.73
2022-11-23T04:58:30.295Z,10.68
2022-11-23T05:01:59.040Z,20.55
2022-11-23T05:05:39.998Z,11.18
2022-11-23T05:09:03.739Z,15.27
2022-11-23T05:12:43.276Z,10.80
2022-11-23T05:16:06.960Z,37.13
2022-11-23T05:19:31.978Z,29.10
2022-11-23T05:22:55.218Z,31.13
2022-11-23T05:26:21.194Z,24.58
2022-11-23T05:29:44.909Z,23.90
2022-11-23T05:33:08.094Z,18.70
2022-11-23T05:36:33.004Z,25.58
2022-11-23T05:39:56.068Z,19.25
2022-11-23T05:43:20.032Z,18.75
2022-11-23T05:46:44.758Z,22.10
2022-11-23T05:50:09.000Z,22.42
2022-11-23T05:53:37.329Z,20.00
2022-11-23T05:57:10.888Z,23.42
2022-11-23T06:00:37.973Z,40.50
2022-11-23T06:04:02.801Z,22.52
2022-11-23T06:07:33.394Z,15.65
2022-11-23T06:11:05.213Z,22.05
2022-11-23T06:14:29.164Z,16.02
2022-11-23T06:17:52.991Z,14.65
2022-11-23T06:21:18.190Z,14.40
2022-11-23T06:24:42.763Z,7.68
2022-11-23T06:28:25.739Z,10.10
2022-11-23T06:31:50.235Z,14.30
2022-11-23T06:35:13.192Z,15.45
2022-11-23T06:38:38.442Z,11.77
2022-11-23T06:42:37.737Z,15.27
2022-11-23T06:45:55.949Z,15.52
2022-11-23T06:49:22.056Z,6.10
2022-11-23T06:53:02.383Z,20.30
2022-11-23T06:56:36.279Z,8.90
2022-11-23T06:59:59.223Z,10.43
2022-11-23T07:03:30.291Z,11.70
2022-11-23T07:07:00.331Z,9.55
2022-11-23T07:10:33.065Z,10.60
2022-11-23T07:13:57.208Z,19.42
2022-11-23T07:17:23.358Z,16.02
2022-11-23T07:20:47.644Z,9.73
2022-11-23T07:24:10.827Z,10.30
2022-11-23T07:27:33.803Z,13.38
2022-11-23T07:30:58.176Z,12.30
2022-11-23T07:34:21.199Z,11.57
2022-11-23T07:37:45.588Z,13.55
2022-11-23T07:41:08.828Z,11.40
2022-11-23T07:44:50.553Z,12.60
2022-11-23T07:48:13.457Z,8.43
2022-11-23T07:51:36.475Z,16.30
2022-11-23T07:55:01.175Z,8.82
2022-11-23T07:58:24.108Z,11.75
2022-11-23T08:01:51.188Z,7.82
2022-11-23T08:05:16.124Z,6.75
2022-11-23T08:08:39.509Z,9.52
2022-11-23T08:12:03.988Z,8.20
2022-11-23T08:15:28.556Z,7.70
2022-11-23T08:18:51.740Z,6.03
2022-11-23T08:22:15.846Z,7.13
2022-11-23T08:25:38.952Z,9.68
2022-11-23T08:29:03.262Z,5.07
2022-11-23T08:32:26.348Z,10.80
2022-11-23T08:35:49.299Z,6.95
2022-11-23T08:39:14.652Z,5.10
2022-11-23T08:42:37.576Z,6.38
2022-11-23T08:46:06.800Z,6.13
2022-11-23T08:49:32.342Z,8.35
2022-11-23T08:52:56.839Z,9.50
2022-11-23T08:56:20.083Z,9.73
2022-11-23T08:59:43.190Z,6.68
2022-11-23T09:03:07.470Z,4.47
2022-11-23T09:06:33.364Z,7.75
2022-11-23T09:09:56.239Z,3.33
2022-11-23T09:13:19.606Z,6.25
2022-11-23T09:16:42.503Z,5.43
2022-11-23T09:20:08.210Z,4.88
2022-11-23T09:23:31.466Z,6.55
2022-11-23T09:26:54.592Z,6.28
2022-11-23T09:30:18.505Z,5.38
2022-11-23T09:33:41.466Z,3.58
2022-11-23T09:37:06.232Z,2.50
2022-11-23T09:40:33.181Z,8.93
2022-11-23T09:44:03.237Z,5.20
2022-11-23T09:47:42.060Z,5.43
2022-11-23T09:51:12.748Z,8.18
2022-11-23T09:54:40.846Z,4.88
2022-11-23T09:58:06.487Z,7.13
2022-11-23T10:01:30.408Z,3.95
2022-11-23T10:04:54.500Z,4.75
2022-11-23T10:08:26.803Z,4.20
2022-11-23T10:12:22.511Z,5.97
2022-11-23T10:16:03.597Z,6.85
2022-11-23T10:19:48.600Z,4.43
2022-11-23T10:23:18.872Z,5.10
2022-11-23T10:26:44.780Z,7.93
2022-11-23T10:30:13.510Z,7.75
2022-11-23T10:33:46.220Z,22.60
2022-11-23T10:37:12.811Z,11.73
2022-11-23T10:40:38.226Z,12.93
2022-11-23T10:44:08.164Z,7.82
2022-11-23T10:47:40.224Z,6.57
2022-11-23T10:51:21.055Z,11.20
2022-11-23T10:54:55.803Z,7.18
2022-11-23T10:58:27.797Z,9.82
2022-11-23T11:02:02.008Z,8.82
2022-11-23T11:09:22.244Z,7.80
2022-11-23T11:12:52.615Z,5.78
2022-11-23T11:16:21.127Z,7.35
2022-11-23T11:19:44.165Z,5.45
2022-11-23T11:23:19.286Z,13.00
2022-11-23T11:26:50.241Z,6.38
2022-11-23T11:30:23.709Z,8.05
2022-11-23T11:33:53.052Z,7.25
2022-11-23T11:37:24.195Z,7.50
2022-11-23T11:40:49.385Z,5.50
2022-11-23T11:44:21.037Z,5.32
2022-11-23T11:47:50.230Z,13.07
2022-11-23T11:51:21.538Z,6.55
2022-11-23T11:54:52.485Z,7.20
2022-11-23T11:58:17.661Z,6.25
2022-11-23T12:01:49.278Z,4.03
2022-11-23T12:05:19.014Z,3.50
2022-11-23T12:08:48.623Z,7.53
2022-11-23T12:12:16.557Z,4.38
2022-11-23T12:15:50.969Z,4.72
2022-11-23T12:19:20.648Z,4.22
2022-11-23T12:22:56.951Z,5.05
2022-11-23T12:26:25.485Z,5.45
2022-11-23T12:30:02.826Z,11.00
2022-11-23T12:37:36.177Z,3.67
2022-11-23T12:41:15.437Z,7.57
2022-11-23T12:45:16.569Z,7.57
2022-11-23T12:48:57.411Z,4.32
2022-11-23T12:52:35.475Z,11.35
2022-11-23T12:56:06.709Z,6.65
2022-11-23T12:59:41.026Z,5.45
2022-11-23T13:03:42.667Z,6.57
2022-11-23T13:07:41.044Z,10.93
2022-11-23T13:11:21.090Z,8.75
2022-11-23T13:14:55.390Z,5.22
2022-11-23T13:18:30.395Z,7.35
2022-11-23T13:21:54.643Z,7.20
2022-11-23T13:25:27.306Z,6.05
2022-11-23T13:28:52.022Z,7.22
2022-11-23T13:32:46.181Z,8.02
2022-11-23T13:36:16.822Z,9.07
2022-11-23T13:40:03.585Z,5.40
2022-11-23T13:43:30.789Z,6.50
2022-11-23T13:47:05.729Z,7.03
2022-11-23T13:50:28.701Z,8.93
2022-11-23T13:53:56.232Z,5.18
2022-11-23T13:57:19.206Z,7.80
2022-11-23T14:00:51.477Z,6.93
2022-11-23T14:04:21.607Z,9.85
2022-11-23T14:07:47.063Z,7.18
2022-11-23T14:11:14.309Z,7.43
2022-11-23T14:15:14.166Z,7.10
2022-11-23T14:18:57.285Z,9.57
2022-11-23T14:22:32.243Z,10.32
2022-11-23T14:26:05.535Z,9.60
2022-11-23T14:29:37.183Z,11.05
2022-11-23T14:33:19.637Z,7.78
2022-11-23T14:36:50.363Z,11.73
2022-11-23T14:40:23.122Z,15.98
2022-11-23T14:43:48.009Z,15.93
2022-11-23T14:47:12.099Z,12.77
2022-11-23T14:50:35.700Z,8.48
2022-11-23T14:54:02.783Z,14.63
2022-11-23T14:57:29.407Z,11.43
2022-11-23T15:00:53.897Z,12.60
2022-11-23T15:04:25.176Z,9.15
2022-11-23T15:07:52.670Z,9.25
2022-11-23T15:11:22.126Z,11.43
2022-11-23T15:14:45.082Z,10.65
2022-11-23T15:18:08.039Z,10.10
2022-11-23T15:21:31.501Z,10.98
2022-11-23T15:24:54.977Z,9.18
2022-11-23T15:28:23.521Z,11.40
2022-11-23T15:32:07.069Z,15.68
2022-11-23T15:35:32.767Z,8.85
2022-11-23T15:38:56.165Z,16.60
2022-11-23T15:42:22.651Z,9.98
2022-11-23T15:46:14.366Z,12.52
2022-11-23T15:49:38.367Z,6.90
2022-11-23T15:53:02.236Z,6.82
2022-11-23T15:56:28.476Z,5.57
2022-11-23T15:59:57.460Z,12.00
2022-11-23T16:03:36.613Z,17.55
2022-11-23T16:07:00.240Z,16.95
2022-11-23T16:10:24.622Z,8.60
2022-11-23T16:13:47.656Z,9.70
2022-11-23T16:17:18.646Z,12.13
2022-11-23T16:20:45.547Z,7.47
2022-11-23T16:24:19.807Z,7.97
2022-11-23T16:27:42.741Z,6.10
2022-11-23T16:31:06.020Z,7.93
2022-11-23T16:34:29.402Z,8.20
2022-11-23T16:37:53.792Z,7.57
2022-11-23T16:41:16.857Z,8.57
2022-11-23T16:44:41.927Z,7.47
2022-11-23T16:48:06.280Z,8.88
2022-11-23T16:51:29.641Z,5.78
2022-11-23T16:54:53.949Z,5.00
2022-11-23T16:58:17.475Z,7.88
2022-11-23T17:01:40.565Z,9.57
2022-11-23T17:05:03.605Z,5.15
2022-11-23T17:08:26.876Z,6.47
2022-11-23T17:11:51.122Z,8.73
2022-11-23T17:15:14.818Z,5.57
2022-11-23T17:18:37.722Z,5.35
2022-11-23T17:22:00.848Z,7.38
2022-11-23T17:25:23.756Z,5.40
2022-11-23T17:28:48.028Z,8.38
2022-11-23T17:32:12.485Z,6.13
2022-11-23T17:35:38.243Z,5.32
2022-11-23T17:39:01.538Z,7.40
2022-11-23T17:42:24.858Z,4.55
2022-11-23T17:45:49.456Z,6.50
2022-11-23T17:49:14.831Z,4.53
2022-11-23T17:52:40.520Z,6.97
2022-11-23T17:56:03.567Z,5.53
2022-11-23T17:59:26.507Z,9.82
2022-11-23T18:02:52.071Z,4.30
2022-11-23T18:06:16.976Z,4.82
2022-11-23T18:09:39.941Z,5.65
2022-11-23T18:13:02.981Z,6.40
2022-11-23T18:16:26.042Z,4.32
2022-11-23T18:19:50.457Z,9.43
2022-11-23T18:23:13.443Z,8.52
2022-11-23T18:26:36.986Z,8.10
2022-11-23T18:30:00.015Z,7.35
2022-11-23T18:33:23.216Z,5.43
2022-11-23T18:36:47.546Z,5.88
2022-11-23T18:40:11.416Z,6.72
2022-11-23T18:43:34.463Z,9.10
2022-11-23T18:46:57.957Z,5.07
2022-11-23T18:50:20.882Z,7.88
2022-11-23T18:53:47.350Z,4.32
2022-11-23T18:57:11.871Z,8.80
2022-11-23T19:00:35.200Z,5.88
2022-11-23T19:03:58.224Z,15.43
2022-11-23T19:07:26.652Z,10.52
2022-11-23T19:10:51.639Z,8.75
2022-11-23T19:14:14.714Z,12.45
2022-11-23T19:17:38.159Z,18.40
2022-11-23T19:21:01.146Z,13.75
2022-11-23T19:24:24.180Z,18.05
2022-11-23T19:27:51.243Z,24.85
2022-11-23T19:31:16.081Z,19.88
2022-11-23T19:34:39.192Z,9.52
2022-11-23T19:38:02.251Z,13.73
2022-11-23T19:41:29.954Z,13.63
2022-11-23T19:44:54.867Z,17.33
2022-11-23T19:48:17.759Z,31.73
2022-11-23T19:51:40.681Z,12.30
2022-11-23T19:55:03.661Z,18.40
2022-11-23T19:58:26.550Z,19.17
2022-11-23T20:01:50.823Z,11.25
2022-11-23T20:05:13.995Z,18.90
2022-11-23T20:08:37.208Z,14.45
2022-11-23T20:12:00.338Z,22.73
2022-11-23T20:15:23.955Z,14.55
2022-11-23T20:18:50.734Z,23.00
2022-11-23T20:22:13.636Z,13.75
2022-11-23T20:25:37.462Z,18.30
2022-11-23T20:29:01.237Z,13.65
2022-11-23T20:32:24.171Z,12.73
2022-11-23T20:35:49.567Z,22.90
2022-11-23T20:39:14.041Z,16.00
2022-11-23T20:42:36.959Z,14.43
2022-11-23T20:45:59.864Z,23.60
2022-11-23T20:49:22.804Z,19.75
2022-11-23T20:52:47.230Z,12.88
2022-11-23T20:56:12.387Z,14.68
2022-11-23T20:59:35.317Z,15.05
2022-11-23T21:02:58.262Z,18.23
2022-11-23T21:06:22.384Z,15.25
2022-11-23T21:09:46.816Z,14.73
2022-11-23T21:13:48.524Z,19.33
2022-11-23T21:17:12.570Z,11.82
2022-11-23T21:20:36.755Z,15.05
2022-11-23T21:23:59.860Z,20.55
2022-11-23T21:27:28.054Z,15.05
2022-11-23T21:30:51.006Z,16.08
2022-11-23T21:34:18.275Z,13.02
2022-11-23T21:37:41.166Z,14.55
2022-11-23T21:41:04.896Z,17.60
2022-11-23T21:44:29.233Z,15.20
2022-11-23T21:47:52.116Z,14.48
2022-11-23T21:51:17.001Z,22.73
2022-11-23T21:54:45.710Z,13.95
2022-11-23T21:58:11.723Z,21.48
2022-11-23T22:01:37.332Z,18.00
2022-11-23T22:05:00.545Z,27.17
2022-11-23T22:08:31.054Z,27.92
2022-11-23T22:11:54.524Z,19.00
2022-11-23T22:15:17.651Z,20.50
2022-11-23T22:18:42.265Z,26.67
2022-11-23T22:22:07.286Z,22.40
2022-11-23T22:25:30.345Z,23.77
2022-11-23T22:28:53.412Z,22.05
2022-11-23T22:32:16.518Z,19.67
2022-11-23T22:35:40.889Z,17.73
2022-11-23T22:39:06.062Z,15.10
2022-11-23T22:42:29.162Z,17.58
2022-11-23T22:45:52.222Z,29.10
2022-11-23T22:49:15.380Z,24.67
2022-11-23T22:52:39.796Z,19.48
2022-11-23T22:56:04.297Z,12.30
2022-11-23T22:59:27.393Z,11.88
2022-11-23T23:02:50.766Z,14.77
2022-11-23T23:06:17.302Z,15.02
2022-11-23T23:09:41.712Z,12.95
2022-11-23T23:13:04.740Z,12.68
2022-11-23T23:16:28.674Z,15.75
2022-11-23T23:19:51.826Z,11.60
2022-11-23T23:23:14.866Z,17.00
2022-11-23T23:26:39.268Z,9.02
2022-11-23T23:30:02.307Z,8.90
2022-11-23T23:33:25.328Z,14.38
2022-11-23T23:36:48.435Z,9.18
2022-11-23T23:40:11.964Z,8.90
2022-11-23T23:43:36.959Z,9.27
2022-11-23T23:46:59.994Z,11.85
2022-11-23T23:50:23.018Z,12.68
2022-11-23T23:53:46.838Z,9.07
2022-11-23T23:57:09.981Z,12.10
